Time;durP1;ratioP1;P1;durP2;ratioP2;P2;SDS_P1;SDS_P2;PMS_P1;PMS_P2;Temp;Humidity;BMP_temperature;BMP_pressure;BME280_temperature;BME280_humidity;BME280_pressure;Samples;Min_cycle;Max_cycle;Signal;HPM_P1;HPM_P2
2022/01/16 00:01:17;;;;;;;56.55;22.67;;;1.70;99.90;;;;;;5117530;27;20398;-85
2022/01/16 00:06:27;;;;;;;52.80;21.27;;;1.70;99.90;;;;;;5127929;27;20046;-85
2022/01/16 00:08:52;;;;;;;49.70;23.20;;;1.70;99.90;;;;;;5120603;27;20126;-85
2022/01/16 00:11:18;;;;;;;46.60;20.40;;;1.60;99.90;;;;;;5101270;27;20042;-84
2022/01/16 00:13:43;;;;;;;56.42;23.50;;;1.60;99.90;;;;;;5099725;27;20381;-84
2022/01/16 00:16:13;;;;;;;48.30;19.70;;;1.60;99.90;;;;;;5116650;27;20084;-85
2022/01/16 00:18:49;;;;;;;51.77;20.80;;;1.60;99.90;;;;;;5116992;27;20084;-85
2022/01/16 00:21:16;;;;;;;50.63;21.63;;;1.60;99.90;;;;;;5103038;27;20115;-84
2022/01/16 00:23:42;;;;;;;49.80;21.90;;;1.60;99.90;;;;;;5127742;27;20034;-84
2022/01/16 00:26:07;;;;;;;57.30;23.03;;;1.60;99.90;;;;;;5116928;27;20039;-84
2022/01/16 00:28:33;;;;;;;47.63;21.43;;;1.50;99.90;;;;;;5116781;27;20047;-84
2022/01/16 00:30:58;;;;;;;53.90;23.53;;;1.50;99.90;;;;;;5117841;27;20046;-84
2022/01/16 00:33:24;;;;;;;48.83;22.50;;;1.50;99.90;;;;;;5116244;27;20042;-85
2022/01/16 00:35:49;;;;;;;56.27;24.07;;;1.50;99.90;;;;;;5115899;27;20485;-84
2022/01/16 00:38:15;;;;;;;55.87;23.73;;;1.40;99.90;;;;;;5115681;27;20488;-85
2022/01/16 00:40:41;;;;;;;57.47;24.17;;;1.40;99.90;;;;;;5116836;27;20027;-85
2022/01/16 00:43:07;;;;;;;55.73;23.03;;;1.40;99.90;;;;;;5116398;27;20043;-84
2022/01/16 00:45:34;;;;;;;59.23;24.43;;;1.40;99.90;;;;;;5116155;27;20043;-84
2022/01/16 00:48:02;;;;;;;59.87;24.63;;;1.40;99.90;;;;;;5116500;27;20396;-84
2022/01/16 00:50:28;;;;;;;66.03;26.27;;;1.40;99.90;;;;;;5120916;27;20054;-84
2022/01/16 00:52:53;;;;;;;59.37;25.00;;;1.40;99.90;;;;;;5136935;27;20039;-84
2022/01/16 00:55:19;;;;;;;67.27;26.97;;;1.40;99.90;;;;;;5136490;27;20506;-84
2022/01/16 00:57:44;;;;;;;63.07;25.03;;;1.40;99.90;;;;;;5136709;27;20035;-84
2022/01/16 01:00:11;;;;;;;62.30;24.13;;;1.40;99.90;;;;;;5134404;27;20495;-84
2022/01/16 01:02:36;;;;;;;65.57;26.50;;;1.30;99.90;;;;;;5136694;27;20121;-85
2022/01/16 01:05:02;;;;;;;76.73;28.80;;;1.40;99.90;;;;;;5119226;27;20176;-84
2022/01/16 01:07:27;;;;;;;65.10;26.83;;;1.40;99.90;;;;;;5119384;27;20559;-85
2022/01/16 01:09:53;;;;;;;73.90;28.27;;;1.40;99.90;;;;;;5130279;27;20389;-84
2022/01/16 01:12:33;;;;;;;70.80;28.27;;;1.40;99.90;;;;;;5119286;27;20034;-84
2022/01/16 01:15:07;;;;;;;70.03;25.90;;;1.30;99.90;;;;;;5136169;27;20107;-85
2022/01/16 01:17:44;;;;;;;74.57;29.63;;;1.40;99.90;;;;;;5136254;27;20109;-85
2022/01/16 01:20:14;;;;;;;74.07;28.27;;;1.40;99.90;;;;;;5100858;27;20038;-84
2022/01/16 01:22:40;;;;;;;79.70;29.87;;;1.40;99.90;;;;;;5098628;27;20046;-84
2022/01/16 01:25:06;;;;;;;78.43;31.07;;;1.40;99.90;;;;;;5098474;27;20424;-84
2022/01/16 01:27:33;;;;;;;69.00;28.33;;;1.40;99.90;;;;;;5115928;27;20300;-84
2022/01/16 01:30:04;;;;;;;75.77;29.77;;;1.50;99.90;;;;;;5116217;27;20434;-84
2022/01/16 01:32:31;;;;;;;71.77;31.10;;;1.50;99.90;;;;;;5115559;27;20041;-83
2022/01/16 01:34:57;;;;;;;77.53;30.17;;;1.50;99.90;;;;;;5115086;27;20099;-84
2022/01/16 01:37:22;;;;;;;77.70;30.67;;;1.50;99.90;;;;;;5115263;27;20042;-84
2022/01/16 01:39:48;;;;;;;72.27;28.13;;;1.50;99.90;;;;;;5115393;27;20069;-84
2022/01/16 01:42:14;;;;;;;73.30;30.47;;;1.50;99.90;;;;;;5115295;27;20031;-84
2022/01/16 01:52:58;;;;;;;68.00;29.27;;;1.40;99.90;;;;;;5115058;27;20050;-84
2022/01/16 01:55:26;;;;;;;69.33;29.07;;;1.40;99.90;;;;;;5118498;27;20492;-84
2022/01/16 01:57:52;;;;;;;78.07;30.20;;;1.50;99.90;;;;;;5114948;27;20045;-84
2022/01/16 02:00:19;;;;;;;73.23;29.50;;;1.50;99.90;;;;;;5098221;27;20095;-84
2022/01/16 02:03:42;;;;;;;71.63;28.87;;;1.50;99.90;;;;;;5114947;27;20134;-85
2022/01/16 02:05:37;;;;;;;75.10;29.83;;;1.60;99.90;;;;;;5096237;27;20078;-84
2022/01/16 02:08:06;;;;;;;72.87;30.30;;;1.60;99.90;;;;;;5077617;28;20647;-85
2022/01/16 02:10:33;;;;;;;67.57;29.40;;;1.60;99.90;;;;;;5097777;27;20031;-85
2022/01/16 02:13:03;;;;;;;74.63;29.67;;;1.60;99.90;;;;;;5114951;27;20422;-84
2022/01/16 02:31:46;;;;;;;80.10;29.50;;;1.60;99.90;;;;;;5114575;27;20094;-85
2022/01/16 02:37:00;;;;;;;76.95;28.45;;;1.60;99.90;;;;;;5114214;27;20412;-84
2022/01/16 02:39:27;;;;;;;76.97;27.57;;;1.60;99.90;;;;;;5123844;27;20038;-84
2022/01/16 02:41:53;;;;;;;83.30;30.17;;;1.60;99.90;;;;;;5134748;27;20041;-84
2022/01/16 02:44:31;;;;;;;80.17;30.33;;;1.60;99.90;;;;;;5134661;27;20171;-84
2022/01/16 02:46:59;;;;;;;77.00;28.13;;;1.60;99.90;;;;;;5134227;27;20113;-84
2022/01/16 02:49:33;;;;;;;83.00;31.43;;;1.60;99.90;;;;;;5130432;27;20038;-84
2022/01/16 02:52:12;;;;;;;78.57;28.33;;;1.60;99.90;;;;;;5093667;28;20039;-84
2022/01/16 02:54:40;;;;;;;76.40;28.63;;;1.60;99.90;;;;;;5093564;28;20036;-84
2022/01/16 02:57:08;;;;;;;77.10;29.17;;;1.60;99.90;;;;;;5093610;28;20042;-84
2022/01/16 02:59:34;;;;;;;81.97;29.40;;;1.60;99.90;;;;;;5093592;28;20081;-85
2022/01/16 03:02:01;;;;;;;81.30;28.17;;;1.50;99.90;;;;;;5093099;28;20111;-85
2022/01/16 03:04:27;;;;;;;78.27;27.83;;;1.50;99.90;;;;;;5095496;27;20050;-84
2022/01/16 03:06:53;;;;;;;82.27;30.17;;;1.50;99.90;;;;;;5124554;27;20159;-84
2022/01/16 03:09:20;;;;;;;87.03;29.00;;;1.50;99.90;;;;;;5134788;27;20046;-85
2022/01/16 03:11:49;;;;;;;69.77;26.90;;;1.50;99.90;;;;;;5134821;27;20050;-84
2022/01/16 03:14:17;;;;;;;81.03;29.13;;;1.50;99.90;;;;;;5134282;27;20042;-85
2022/01/16 03:16:47;;;;;;;83.87;29.13;;;1.50;99.90;;;;;;5118152;28;20458;-85
2022/01/16 03:22:02;;;;;;;69.03;28.33;;;1.60;99.90;;;;;;5113883;28;20039;-85
2022/01/16 03:24:37;;;;;;;88.50;30.67;;;1.60;99.90;;;;;;5113524;28;20039;-84
2022/01/16 03:27:06;;;;;;;78.03;28.67;;;1.60;99.90;;;;;;5115068;28;20423;-84
2022/01/16 03:29:32;;;;;;;83.67;30.37;;;1.60;99.90;;;;;;5114821;27;20061;-84
2022/01/16 03:31:59;;;;;;;81.10;29.80;;;1.60;99.90;;;;;;5133066;27;20070;-85
2022/01/16 03:34:25;;;;;;;88.80;30.97;;;1.60;99.90;;;;;;5134069;27;20031;-84
2022/01/16 03:36:50;;;;;;;85.37;31.63;;;1.60;99.90;;;;;;5128188;27;20087;-84
2022/01/16 03:39:17;;;;;;;95.37;31.93;;;1.70;99.90;;;;;;5134201;27;20080;-85
2022/01/16 03:41:42;;;;;;;87.53;30.80;;;1.70;99.90;;;;;;5134324;27;20050;-85
2022/01/16 03:44:08;;;;;;;90.87;31.77;;;1.70;99.90;;;;;;5117114;27;20176;-85
2022/01/16 03:46:37;;;;;;;91.47;31.58;;;1.70;99.90;;;;;;5119571;28;20092;-84
2022/01/16 03:49:05;;;;;;;93.43;30.43;;;1.70;99.90;;;;;;5113567;28;20065;-85
2022/01/16 03:51:32;;;;;;;84.93;30.52;;;1.70;99.90;;;;;;5122116;27;20035;-85
2022/01/16 03:53:57;;;;;;;97.33;32.13;;;1.80;99.90;;;;;;5133755;27;20045;-84
2022/01/16 03:56:23;;;;;;;95.18;33.03;;;1.70;99.90;;;;;;5134049;27;20038;-85
2022/01/16 03:58:49;;;;;;;98.18;32.42;;;1.80;99.90;;;;;;5134022;27;20083;-84
2022/01/16 04:01:15;;;;;;;102.67;34.63;;;1.70;99.90;;;;;;5135108;27;20121;-84
2022/01/16 04:03:40;;;;;;;95.73;33.17;;;1.80;99.90;;;;;;5117993;27;20036;-84
2022/01/16 04:06:06;;;;;;;97.18;32.03;;;1.80;99.90;;;;;;5117259;27;20035;-84
2022/01/16 04:08:32;;;;;;;99.90;32.28;;;1.80;99.90;;;;;;5117153;27;20111;-84
2022/01/16 04:10:59;;;;;;;108.18;33.55;;;1.80;99.90;;;;;;5114036;27;20492;-85
2022/01/16 04:13:25;;;;;;;93.38;31.90;;;1.80;99.90;;;;;;5124256;27;20038;-84
2022/01/16 04:15:50;;;;;;;100.53;32.42;;;1.80;99.90;;;;;;5137220;27;20405;-84
2022/01/16 04:18:16;;;;;;;109.27;33.10;;;1.90;99.90;;;;;;5137590;27;20182;-84
2022/01/16 04:20:41;;;;;;;109.33;32.03;;;1.90;99.90;;;;;;5137466;27;20484;-85
2022/01/16 04:23:10;;;;;;;107.63;32.67;;;1.90;99.90;;;;;;5117180;27;20035;-85
2022/01/16 04:25:36;;;;;;;116.30;34.47;;;1.90;99.90;;;;;;5099715;27;20061;-84
2022/01/16 04:28:02;;;;;;;120.57;33.58;;;1.90;99.90;;;;;;5099704;27;20050;-85
2022/01/16 04:30:28;;;;;;;120.70;34.22;;;1.90;99.90;;;;;;5117031;27;20382;-85
2022/01/16 04:32:53;;;;;;;108.55;33.20;;;1.90;99.90;;;;;;5117355;27;20091;-84
2022/01/16 04:35:19;;;;;;;113.88;34.13;;;1.90;99.90;;;;;;5099427;27;20096;-85
2022/01/16 04:37:45;;;;;;;123.63;35.80;;;2.00;99.90;;;;;;5116119;27;20035;-84
2022/01/16 04:40:11;;;;;;;119.57;34.13;;;2.00;99.90;;;;;;5115704;27;20492;-85
2022/01/16 04:45:21;;;;;;;;;;;2.10;99.90;;;;;;5116674;27;20577;-85
2022/01/16 04:47:50;;;;;;;111.00;30.87;;;2.00;99.90;;;;;;5116589;27;19915;-85
2022/01/16 04:50:16;;;;;;;108.77;32.40;;;2.10;99.90;;;;;;5116766;27;20043;-84
2022/01/16 04:52:44;;;;;;;123.25;35.08;;;2.10;99.90;;;;;;5116981;27;20113;-84
2022/01/16 04:55:12;;;;;;;118.93;34.75;;;2.10;99.90;;;;;;5098931;27;20047;-84
2022/01/16 04:57:38;;;;;;;121.73;33.73;;;2.10;99.90;;;;;;5116134;27;20036;-84
2022/01/16 05:00:07;;;;;;;127.07;36.13;;;2.10;99.90;;;;;;5116189;27;20031;-85
2022/01/16 05:02:33;;;;;;;118.47;35.57;;;2.10;99.90;;;;;;5099871;27;20075;-85
2022/01/16 05:04:58;;;;;;;138.18;37.33;;;2.10;99.90;;;;;;5115900;27;20125;-84
2022/01/16 05:07:24;;;;;;;128.68;34.60;;;2.20;99.90;;;;;;5115921;27;20035;-85
2022/01/16 05:09:49;;;;;;;120.65;34.20;;;2.20;99.90;;;;;;5098470;27;20043;-84
2022/01/16 05:12:24;;;;;;;126.85;35.90;;;2.20;99.90;;;;;;5122949;27;20038;-85
2022/01/16 05:17:34;;;;;;;123.10;36.03;;;2.30;99.90;;;;;;5136347;27;20102;-84
2022/01/16 05:19:59;;;;;;;128.90;34.05;;;2.30;99.90;;;;;;5136555;27;20066;-84
2022/01/16 05:22:25;;;;;;;118.53;34.17;;;2.30;99.90;;;;;;5108107;27;20046;-84
2022/01/16 05:24:51;;;;;;;127.68;34.85;;;2.30;99.90;;;;;;5098514;27;20031;-85
2022/01/16 05:27:16;;;;;;;133.25;34.92;;;2.30;99.90;;;;;;5118114;27;20043;-84
2022/01/16 05:29:42;;;;;;;140.70;35.55;;;2.30;99.90;;;;;;5115615;27;20058;-84
2022/01/16 05:32:07;;;;;;;136.43;35.70;;;2.40;99.90;;;;;;5115566;27;20095;-85
2022/01/16 05:34:33;;;;;;;127.70;35.60;;;2.40;99.90;;;;;;5115322;27;20092;-85
2022/01/16 05:36:58;;;;;;;140.20;36.67;;;2.40;99.90;;;;;;5098477;27;20035;-85
2022/01/16 05:39:24;;;;;;;140.88;35.28;;;2.40;99.90;;;;;;5131326;27;20066;-85
2022/01/16 05:41:49;;;;;;;126.07;35.72;;;2.50;99.90;;;;;;5135918;27;20042;-84
2022/01/16 05:44:15;;;;;;;138.57;34.78;;;2.40;99.90;;;;;;5135981;27;20035;-84
2022/01/16 05:46:40;;;;;;;138.18;35.83;;;2.40;99.90;;;;;;5135817;27;20031;-85
2022/01/16 05:49:06;;;;;;;141.90;36.00;;;2.50;99.90;;;;;;5128664;27;20114;-84
2022/01/16 05:51:31;;;;;;;142.50;36.40;;;2.50;99.90;;;;;;5134708;27;20047;-85
2022/01/16 05:53:57;;;;;;;140.05;36.90;;;2.50;99.90;;;;;;5118387;27;20439;-84
2022/01/16 05:56:23;;;;;;;143.05;36.58;;;2.50;99.90;;;;;;5118868;27;20488;-84
2022/01/16 05:58:49;;;;;;;140.80;35.70;;;2.60;99.90;;;;;;5120836;27;20046;-84
2022/01/16 06:01:14;;;;;;;142.98;37.38;;;2.50;99.90;;;;;;5115355;27;20404;-84
2022/01/16 06:03:40;;;;;;;135.77;36.78;;;2.50;99.90;;;;;;5115135;27;20031;-84
2022/01/16 06:06:05;;;;;;;148.98;37.78;;;2.50;99.90;;;;;;5114506;27;20039;-84
2022/01/16 06:08:31;;;;;;;138.48;37.45;;;2.60;99.90;;;;;;5115762;27;20150;-84
2022/01/16 06:10:56;;;;;;;138.95;36.03;;;2.60;99.90;;;;;;5109028;28;20036;-84
2022/01/16 06:13:22;;;;;;;166.25;41.40;;;2.50;99.90;;;;;;5110913;27;20024;-85
2022/01/16 06:15:47;;;;;;;132.90;36.55;;;2.60;99.90;;;;;;5114319;27;20047;-84
2022/01/16 06:18:14;;;;;;;145.30;37.50;;;2.60;99.90;;;;;;5118167;27;20031;-84
2022/01/16 06:20:41;;;;;;;151.15;40.17;;;2.60;99.90;;;;;;5135418;27;20426;-84
2022/01/16 06:23:06;;;;;;;154.15;39.97;;;2.70;99.90;;;;;;5117294;27;20121;-84
2022/01/16 06:25:32;;;;;;;144.40;38.22;;;2.70;99.90;;;;;;5134913;27;20074;-84
2022/01/16 06:27:58;;;;;;;161.18;39.22;;;2.70;99.90;;;;;;5132249;27;20038;-84
2022/01/16 06:30:23;;;;;;;159.85;39.88;;;2.70;99.90;;;;;;5099252;27;20043;-84
2022/01/16 06:32:49;;;;;;;165.80;40.58;;;2.70;99.90;;;;;;5077180;28;20120;-84
2022/01/16 06:35:15;;;;;;;165.48;41.45;;;2.80;99.90;;;;;;5093606;28;20039;-84
2022/01/16 06:37:41;;;;;;;168.13;42.30;;;2.80;99.90;;;;;;5077087;28;20043;-84
2022/01/16 06:40:07;;;;;;;152.23;42.05;;;2.80;99.90;;;;;;5109497;27;20070;-84
2022/01/16 06:42:33;;;;;;;154.35;40.67;;;2.90;99.90;;;;;;5096864;27;20058;-85
2022/01/16 06:44:58;;;;;;;153.18;41.78;;;2.90;99.90;;;;;;5097392;28;20500;-84
2022/01/16 06:47:24;;;;;;;150.10;40.55;;;2.90;99.90;;;;;;5114472;27;20134;-85
2022/01/16 06:49:49;;;;;;;170.68;44.00;;;3.00;99.90;;;;;;5112361;27;20122;-85
2022/01/16 06:52:15;;;;;;;168.23;43.55;;;3.00;99.90;;;;;;5097283;28;20074;-85
2022/01/16 06:54:41;;;;;;;176.23;44.60;;;3.10;99.90;;;;;;5113675;27;20087;-84
2022/01/16 06:57:07;;;;;;;165.27;43.17;;;3.10;99.90;;;;;;5113667;28;20485;-85
2022/01/16 06:59:34;;;;;;;163.15;42.47;;;3.10;99.90;;;;;;5100761;28;20488;-85
2022/01/16 07:02:00;;;;;;;172.18;46.72;;;3.10;99.90;;;;;;5094695;28;20032;-85
2022/01/16 07:04:27;;;;;;;155.60;44.58;;;3.20;99.90;;;;;;5093325;28;20035;-85
2022/01/16 07:06:53;;;;;;;157.57;42.83;;;3.20;99.90;;;;;;5093567;28;20043;-85
2022/01/16 07:09:18;;;;;;;169.40;44.72;;;3.20;99.90;;;;;;5093555;28;20416;-85
2022/01/16 07:11:44;;;;;;;175.30;44.85;;;3.30;99.90;;;;;;5096243;28;20091;-84
2022/01/16 07:14:09;;;;;;;173.25;46.65;;;3.30;99.90;;;;;;5112988;28;20122;-85
2022/01/16 07:16:35;;;;;;;163.95;45.22;;;3.30;99.90;;;;;;5094433;28;20505;-85
2022/01/16 07:19:00;;;;;;;168.60;45.42;;;3.30;99.90;;;;;;5093311;28;20058;-85
2022/01/16 07:21:26;;;;;;;178.95;46.45;;;3.40;99.90;;;;;;5093560;28;20130;-85
2022/01/16 07:23:53;;;;;;;168.13;47.00;;;3.40;99.90;;;;;;5093697;28;20106;-86
2022/01/16 07:26:19;;;;;;;152.70;45.15;;;3.40;99.90;;;;;;5076606;28;20043;-84
2022/01/16 07:28:45;;;;;;;166.38;46.70;;;3.50;99.90;;;;;;5098943;28;20400;-85
2022/01/16 07:31:11;;;;;;;147.13;44.83;;;3.50;99.90;;;;;;5113797;28;20035;-85
2022/01/16 07:33:37;;;;;;;165.13;46.05;;;3.50;99.90;;;;;;5098752;27;20034;-85
2022/01/16 07:36:04;;;;;;;142.73;45.58;;;3.60;99.90;;;;;;5117651;27;20492;-84
2022/01/16 07:38:29;;;;;;;160.48;47.30;;;3.60;99.90;;;;;;5100933;27;20544;-84
2022/01/16 07:40:55;;;;;;;152.32;45.03;;;3.60;99.90;;;;;;5117629;27;20079;-85
2022/01/16 07:43:21;;;;;;;150.35;46.67;;;3.60;99.90;;;;;;5117536;27;20035;-85
2022/01/16 07:45:46;;;;;;;134.98;45.55;;;3.70;99.90;;;;;;5100347;28;20039;-83
2022/01/16 07:48:12;;;;;;;132.02;42.58;;;3.70;99.90;;;;;;5102107;28;20036;-85
2022/01/16 07:50:38;;;;;;;139.13;46.25;;;3.80;99.90;;;;;;5121022;27;20122;-84
2022/01/16 07:53:05;;;;;;;148.68;47.08;;;3.80;99.90;;;;;;5117724;27;20453;-84
2022/01/16 07:55:31;;;;;;;142.68;47.20;;;3.80;99.90;;;;;;5099955;27;20036;-84
2022/01/16 07:57:57;;;;;;;136.30;46.42;;;3.80;99.90;;;;;;5100788;27;20098;-84
2022/01/16 08:00:23;;;;;;;132.75;45.78;;;3.90;99.90;;;;;;5125497;27;20085;-85
2022/01/16 08:02:50;;;;;;;136.77;44.42;;;3.90;99.90;;;;;;5121101;27;20055;-85
2022/01/16 08:05:17;;;;;;;130.02;45.13;;;3.90;99.90;;;;;;5128426;27;20492;-84
2022/01/16 08:07:43;;;;;;;123.97;43.90;;;3.90;99.90;;;;;;5118052;27;20035;-84
2022/01/16 08:10:08;;;;;;;131.32;45.13;;;3.90;99.90;;;;;;5129733;27;20133;-84
2022/01/16 08:12:34;;;;;;;122.43;44.95;;;3.90;99.90;;;;;;5115462;27;20065;-85
2022/01/16 08:15:00;;;;;;;128.98;45.45;;;3.90;99.90;;;;;;5129030;27;20031;-84
2022/01/16 08:17:26;;;;;;;126.07;45.25;;;3.90;99.90;;;;;;5115317;27;20042;-84
2022/01/16 08:19:51;;;;;;;123.07;45.22;;;4.00;99.90;;;;;;5116612;27;20032;-84
2022/01/16 08:22:17;;;;;;;124.07;45.90;;;4.00;99.90;;;;;;5123918;27;20042;-85
2022/01/16 08:24:42;;;;;;;112.38;43.55;;;4.10;99.90;;;;;;5126772;27;20121;-85
2022/01/16 08:27:08;;;;;;;125.95;44.00;;;4.10;99.90;;;;;;5104079;27;20052;-84
2022/01/16 08:29:34;;;;;;;127.65;44.55;;;4.10;99.90;;;;;;5132495;27;20038;-84
2022/01/16 08:31:59;;;;;;;119.18;42.47;;;4.10;99.90;;;;;;5120092;27;20492;-84
2022/01/16 08:34:25;;;;;;;125.72;45.88;;;4.20;99.90;;;;;;5123466;27;20442;-84
2022/01/16 08:36:50;;;;;;;125.22;46.38;;;4.20;99.90;;;;;;5109951;27;20054;-85
2022/01/16 08:39:16;;;;;;;127.68;44.42;;;4.20;99.90;;;;;;5122605;27;20070;-85
2022/01/16 08:41:41;;;;;;;116.32;42.92;;;4.20;99.90;;;;;;5099962;27;20031;-84
2022/01/16 08:44:07;;;;;;;111.47;44.55;;;4.20;99.90;;;;;;5121758;27;20044;-85
2022/01/16 08:46:33;;;;;;;105.70;43.08;;;4.30;99.90;;;;;;5118551;27;20080;-85
2022/01/16 08:48:59;;;;;;;116.22;45.03;;;4.20;99.90;;;;;;5115383;27;20488;-85
2022/01/16 08:51:25;;;;;;;109.75;44.00;;;4.30;99.90;;;;;;5116282;27;20171;-85
2022/01/16 08:53:50;;;;;;;104.85;44.20;;;4.40;99.90;;;;;;5092750;27;20489;-87
2022/01/16 08:56:16;;;;;;;111.55;43.28;;;4.40;99.90;;;;;;5082766;28;20069;-85
2022/01/16 08:58:42;;;;;;;105.18;44.10;;;4.40;99.90;;;;;;5095968;27;20035;-85
2022/01/16 09:01:07;;;;;;;110.50;44.88;;;4.50;99.90;;;;;;5115639;27;20178;-85
2022/01/16 09:03:33;;;;;;;101.35;43.65;;;4.50;99.90;;;;;;5100036;27;20035;-85
2022/01/16 09:05:59;;;;;;;100.82;42.20;;;4.50;99.90;;;;;;5111088;27;20121;-85
2022/01/16 09:08:25;;;;;;;105.43;43.80;;;4.60;99.90;;;;;;5115712;27;20610;-85
2022/01/16 09:10:50;;;;;;;100.30;42.10;;;4.60;99.90;;;;;;5115619;27;20042;-84
2022/01/16 09:13:16;;;;;;;99.50;42.38;;;4.60;99.90;;;;;;5115853;27;20179;-85
2022/01/16 09:15:44;;;;;;;91.35;41.72;;;4.70;99.90;;;;;;5098347;27;20618;-85
2022/01/16 09:18:10;;;;;;;92.20;42.75;;;4.70;99.90;;;;;;5115911;27;20035;-85
2022/01/16 09:20:36;;;;;;;93.50;41.20;;;4.70;99.90;;;;;;5093960;27;20399;-85
2022/01/16 09:23:02;;;;;;;90.90;41.15;;;4.70;99.90;;;;;;5098413;27;20085;-85
2022/01/16 09:25:28;;;;;;;90.95;39.47;;;4.80;99.90;;;;;;5115219;27;20065;-85
2022/01/16 09:27:53;;;;;;;82.53;39.33;;;4.80;99.90;;;;;;5098485;27;20043;-85
2022/01/16 09:30:23;;;;;;;83.93;40.50;;;4.80;99.90;;;;;;5119349;27;20037;-85
2022/01/16 09:32:49;;;;;;;85.82;38.30;;;4.80;99.90;;;;;;5114549;27;20031;-85
2022/01/16 09:35:15;;;;;;;79.70;37.00;;;4.90;99.90;;;;;;5114182;27;20134;-85
2022/01/16 09:37:42;;;;;;;75.00;36.13;;;5.00;99.90;;;;;;5132569;27;20035;-85
2022/01/16 09:40:09;;;;;;;80.75;36.47;;;4.90;99.90;;;;;;5132503;27;20046;-85
2022/01/16 09:42:36;;;;;;;76.63;38.45;;;5.00;99.90;;;;;;5131952;27;20511;-85
2022/01/16 09:45:05;;;;;;;66.47;35.15;;;5.00;99.90;;;;;;5114803;27;20400;-85
2022/01/16 09:47:31;;;;;;;67.63;34.72;;;5.10;99.90;;;;;;5109413;27;20117;-85
2022/01/16 09:49:56;;;;;;;61.35;34.53;;;5.20;99.90;;;;;;5118673;27;20590;-86
2022/01/16 09:52:22;;;;;;;64.72;35.72;;;5.20;99.90;;;;;;5129875;27;20043;-85
2022/01/16 09:54:47;;;;;;;65.63;34.75;;;5.20;99.90;;;;;;5077784;27;20127;-84
2022/01/16 09:57:13;;;;;;;70.07;34.22;;;5.40;99.90;;;;;;5094675;28;20031;-85
2022/01/16 09:59:38;;;;;;;60.15;30.48;;;5.40;99.90;;;;;;5096609;28;20031;-85
2022/01/16 10:02:06;;;;;;;61.85;32.10;;;5.60;99.90;;;;;;5075469;28;20048;-84
2022/01/16 10:04:35;;;;;;;55.80;31.67;;;5.60;99.90;;;;;;5081792;28;20077;-84
2022/01/16 10:07:13;;;;;;;58.55;33.30;;;5.60;99.90;;;;;;5098870;27;20408;-85
2022/01/16 10:09:41;;;;;;;52.90;29.52;;;5.70;99.90;;;;;;5094215;28;20043;-85
2022/01/16 10:12:17;;;;;;;56.83;30.25;;;5.70;99.90;;;;;;5108255;27;20040;-85
2022/01/16 10:14:49;;;;;;;58.22;30.42;;;5.80;99.90;;;;;;5096000;27;20035;-85
2022/01/16 10:17:23;;;;;;;53.20;29.25;;;5.80;99.90;;;;;;5113680;27;20031;-85
2022/01/16 10:20:00;;;;;;;51.33;28.85;;;5.80;99.90;;;;;;5105657;27;20113;-84
2022/01/16 10:22:38;;;;;;;48.05;28.13;;;5.90;99.90;;;;;;5103636;27;20092;-85
2022/01/16 10:25:04;;;;;;;50.92;27.08;;;5.90;99.90;;;;;;5077559;27;20126;-84
2022/01/16 10:27:35;;;;;;;50.78;27.77;;;5.90;99.90;;;;;;5119956;27;20125;-84
2022/01/16 10:30:02;;;;;;;49.35;27.75;;;5.90;99.90;;;;;;5134719;27;20456;-85
2022/01/16 10:32:31;;;;;;;47.65;27.77;;;6.00;99.90;;;;;;5130479;27;20426;-85
2022/01/16 10:35:20;;;;;;;48.25;26.88;;;6.00;99.90;;;;;;5115134;27;20373;-85
2022/01/16 10:37:58;;;;;;;48.85;27.13;;;6.00;99.90;;;;;;5107214;27;20451;-85
2022/01/16 10:40:36;;;;;;;51.15;27.25;;;6.00;99.90;;;;;;5099662;27;20040;-85
2022/01/16 10:43:05;;;;;;;49.60;26.08;;;6.00;99.90;;;;;;5093288;28;20040;-85
2022/01/16 10:45:32;;;;;;;50.20;25.17;;;6.20;99.90;;;;;;5112728;27;20507;-85
2022/01/16 10:48:00;;;;;;;50.58;25.55;;;6.10;99.90;;;;;;5114216;27;20038;-85
2022/01/16 10:50:44;;;;;;;40.88;25.70;;;6.10;99.90;;;;;;5130535;27;20045;-85
2022/01/16 10:53:19;;;;;;;46.25;24.23;;;6.20;99.90;;;;;;5114138;27;20067;-85
2022/01/16 10:55:47;;;;;;;43.35;23.73;;;6.10;99.90;;;;;;5114568;27;20042;-85
2022/01/16 10:58:15;;;;;;;45.03;24.13;;;6.20;99.90;;;;;;5113560;27;20035;-85
2022/01/16 11:00:44;;;;;;;43.17;24.02;;;6.10;99.90;;;;;;5113941;28;20039;-85
2022/01/16 11:03:14;;;;;;;37.58;22.42;;;6.20;99.90;;;;;;5093516;28;20039;-85
2022/01/16 11:05:43;;;;;;;40.15;23.38;;;6.10;99.90;;;;;;5096226;27;20039;-88
2022/01/16 11:08:14;;;;;;;40.85;22.75;;;6.20;99.90;;;;;;5108170;27;20046;-85
2022/01/16 11:10:42;;;;;;;44.63;23.20;;;6.20;99.90;;;;;;5090012;27;20045;-85
2022/01/16 11:13:20;;;;;;;40.25;21.95;;;6.20;99.90;;;;;;5091441;28;20035;-85
2022/01/16 11:15:49;;;;;;;40.72;20.73;;;6.20;99.90;;;;;;5101842;28;20047;-84
2022/01/16 11:18:16;;;;;;;41.33;20.05;;;6.20;99.90;;;;;;5091819;28;20067;-85
2022/01/16 11:20:52;;;;;;;40.13;21.30;;;6.20;99.90;;;;;;5096550;28;20031;-85
2022/01/16 11:26:06;;;;;;;40.10;20.15;;;6.20;99.90;;;;;;5107938;28;20050;-85
2022/01/16 11:28:33;;;;;;;41.25;18.98;;;6.20;99.90;;;;;;5113341;28;20043;-85
2022/01/16 11:31:01;;;;;;;46.13;19.05;;;6.30;99.90;;;;;;5113573;28;20039;-86
2022/01/16 11:33:29;;;;;;;36.08;18.10;;;6.30;99.90;;;;;;5117201;27;20128;-85
2022/01/16 11:35:59;;;;;;;33.72;18.27;;;6.20;99.90;;;;;;5119516;28;20055;-85
2022/01/16 11:38:30;;;;;;;44.88;18.85;;;6.30;99.90;;;;;;5112438;28;20046;-85
2022/01/16 11:41:01;;;;;;;31.05;17.52;;;6.30;99.90;;;;;;5105449;28;20088;-85
2022/01/16 11:43:35;;;;;;;38.97;17.05;;;6.30;99.90;;;;;;5095652;28;20054;-85
2022/01/16 11:46:17;;;;;;;31.65;16.45;;;6.30;99.90;;;;;;5095750;28;20497;-86
2022/01/16 11:48:50;;;;;;;31.00;14.98;;;6.30;99.90;;;;;;5104229;28;20050;-85
2022/01/16 11:51:34;;;;;;;25.13;14.27;;;6.30;99.90;;;;;;5112905;28;20126;-86
2022/01/16 11:54:24;;;;;;;31.13;15.40;;;6.40;99.90;;;;;;5111139;28;20508;-86
2022/01/16 11:56:54;;;;;;;30.13;14.30;;;6.40;99.90;;;;;;5098072;28;20031;-86
2022/01/16 11:59:34;;;;;;;30.83;13.27;;;6.40;99.90;;;;;;5100728;28;20040;-85
2022/01/16 12:02:00;;;;;;;32.25;13.90;;;6.40;99.90;;;;;;5111853;28;20042;-85
2022/01/16 12:04:29;;;;;;;30.70;13.15;;;6.40;99.90;;;;;;5113445;28;20043;-85
2022/01/16 12:07:17;;;;;;;29.67;11.50;;;6.40;99.90;;;;;;5118526;28;20039;-84
2022/01/16 12:12:14;;;;;;;25.02;10.82;;;6.50;99.90;;;;;;5112866;28;20043;-85
2022/01/16 12:14:47;;;;;;;25.70;10.85;;;6.50;99.90;;;;;;5113014;28;20497;-85
2022/01/16 12:17:30;;;;;;;24.42;11.07;;;6.50;99.90;;;;;;5115846;27;20035;-85
2022/01/16 12:20:21;;;;;;;20.13;9.85;;;6.50;99.90;;;;;;5123237;27;20171;-85
2022/01/16 12:23:09;;;;;;;19.88;9.57;;;6.50;99.90;;;;;;5099787;27;20035;-85
2022/01/16 12:25:40;;;;;;;21.05;10.15;;;6.60;99.90;;;;;;5111728;27;20035;-85
2022/01/16 12:28:06;;;;;;;22.40;9.85;;;6.60;99.90;;;;;;5116220;27;20042;-85
2022/01/16 12:30:37;;;;;;;17.17;9.10;;;6.60;99.90;;;;;;5116600;27;20043;-85
2022/01/16 12:33:09;;;;;;;24.17;9.57;;;6.60;99.90;;;;;;5116424;27;20072;-82
2022/01/16 12:35:50;;;;;;;21.42;9.40;;;6.60;99.90;;;;;;5115815;27;20090;-82
2022/01/16 12:38:16;;;;;;;21.55;9.73;;;6.60;99.90;;;;;;5120575;27;20416;-82
2022/01/16 12:40:45;;;;;;;20.40;8.65;;;6.60;99.90;;;;;;5128899;27;20512;-82
2022/01/16 12:43:20;;;;;;;20.77;8.73;;;6.60;99.90;;;;;;5101363;27;20046;-82
2022/01/16 12:45:46;;;;;;;20.00;9.35;;;6.70;99.90;;;;;;5117452;27;20095;-85
2022/01/16 12:48:13;;;;;;;19.38;9.13;;;6.70;99.90;;;;;;5116221;27;20125;-84
2022/01/16 12:50:39;;;;;;;20.40;9.15;;;6.70;99.90;;;;;;5114859;27;20039;-86
2022/01/16 12:53:04;;;;;;;18.58;8.93;;;6.60;99.90;;;;;;5114507;27;20129;-85
2022/01/16 12:55:32;;;;;;;19.05;10.05;;;6.70;99.90;;;;;;5113535;27;20039;-85
2022/01/16 12:58:17;;;;;;;20.92;9.70;;;6.70;99.90;;;;;;5113066;27;20372;-84
2022/01/16 13:01:04;;;;;;;21.40;9.45;;;6.60;99.90;;;;;;5097618;27;20045;-84
2022/01/16 13:03:32;;;;;;;23.88;8.95;;;6.70;99.90;;;;;;5114214;27;20035;-85
2022/01/16 13:06:16;;;;;;;19.45;9.57;;;6.60;99.90;;;;;;5116260;27;20119;-84
2022/01/16 13:09:08;;;;;;;;;;;6.60;99.90;;;;;;5116873;27;20130;-85
2022/01/16 13:11:39;;;;;;;20.98;9.23;;;6.60;99.90;;;;;;5111555;27;19976;-84
2022/01/16 13:14:07;;;;;;;20.33;9.65;;;6.60;99.90;;;;;;5115811;27;20571;-85
2022/01/16 13:16:36;;;;;;;19.08;9.43;;;6.60;99.90;;;;;;5115948;27;20039;-84
2022/01/16 13:19:15;;;;;;;21.88;9.30;;;6.60;99.90;;;;;;5116188;27;20171;-84
2022/01/16 13:21:47;;;;;;;21.40;9.30;;;6.60;99.90;;;;;;5098944;27;20039;-85